QTR22U VOMM-VOBL
Flight info
| Callsign | QTR22U |
|---|---|
| Flight time | 0h 42m |
| Altitude | 37000 |
| Route | MMV W117 XIVIL XIVIL7E |
| Aircraft | A332/H-SDE3GHIJ2J3J5M1RVWXY/LB2D1 |
Departure
| Time | 2026-04-26 06:23 |
|---|---|
| Airport | Chennai International Airport (VOMM) |
Arrival
| Time | 2026-04-26 07:05 |
|---|---|
| Airport | Kempegowda International Airport Bengaluru (VOBL) |
| Time | Latitude | Longitude | Altitude | Speed | Heading |
|---|---|---|---|---|---|
| 2026-04-26 05:39 | 12.98371 | 80.16412 | 51 ft | 0 kts | 162° |
| 2026-04-26 06:08 | 12.98375 | 80.16411 | 50 ft | 3 kts | 162° |
| 2026-04-26 06:09 | 12.98392 | 80.16405 | 46 ft | 3 kts | 162° |
| 2026-04-26 06:09 | 12.98410 | 80.16399 | 47 ft | 3 kts | 145° |
| 2026-04-26 06:09 | 12.98425 | 80.16387 | 47 ft | 3 kts | 135° |
| 2026-04-26 06:09 | 12.98438 | 80.16374 | 47 ft | 3 kts | 129° |
| 2026-04-26 06:10 | 12.98446 | 80.16356 | 44 ft | 1 kts | 79° |
| 2026-04-26 06:12 | 12.98447 | 80.16359 | 44 ft | 1 kts | 76° |
| 2026-04-26 06:12 | 12.98450 | 80.16371 | 44 ft | 3 kts | 75° |
| 2026-04-26 06:13 | 12.98458 | 80.16395 | 44 ft | 4 kts | 70° |
| 2026-04-26 06:13 | 12.98470 | 80.16429 | 49 ft | 6 kts | 69° |
| 2026-04-26 06:13 | 12.98486 | 80.16473 | 50 ft | 7 kts | 69° |
| 2026-04-26 06:13 | 12.98506 | 80.16525 | 49 ft | 9 kts | 69° |
| 2026-04-26 06:14 | 12.98527 | 80.16586 | 48 ft | 10 kts | 71° |
| 2026-04-26 06:14 | 12.98552 | 80.16654 | 48 ft | 11 kts | 69° |
| 2026-04-26 06:14 | 12.98580 | 80.16727 | 52 ft | 11 kts | 62° |
| 2026-04-26 06:14 | 12.98625 | 80.16756 | 51 ft | 6 kts | 2° |
| 2026-04-26 06:15 | 12.98665 | 80.16748 | 50 ft | 6 kts | 343° |
| 2026-04-26 06:15 | 12.98709 | 80.16735 | 50 ft | 8 kts | 346° |
| 2026-04-26 06:15 | 12.98748 | 80.16744 | 48 ft | 4 kts | 40° |
| 2026-04-26 06:15 | 12.98771 | 80.16777 | 48 ft | 6 kts | 64° |
| 2026-04-26 06:16 | 12.98793 | 80.16828 | 49 ft | 10 kts | 68° |
| 2026-04-26 06:16 | 12.98831 | 80.16927 | 48 ft | 20 kts | 68° |
| 2026-04-26 06:16 | 12.98890 | 80.17084 | 48 ft | 27 kts | 70° |
| 2026-04-26 06:16 | 12.98973 | 80.17280 | 49 ft | 33 kts | 63° |
| 2026-04-26 06:17 | 12.99051 | 80.17483 | 48 ft | 30 kts | 69° |
| 2026-04-26 06:17 | 12.99104 | 80.17582 | 50 ft | 9 kts | 67° |
| 2026-04-26 06:17 | 12.99119 | 80.17641 | 51 ft | 8 kts | 78° |
| 2026-04-26 06:17 | 12.99137 | 80.17677 | 46 ft | 3 kts | 38° |
| 2026-04-26 06:18 | 12.99162 | 80.17691 | 52 ft | 4 kts | 19° |
| 2026-04-26 06:18 | 12.99193 | 80.17705 | 50 ft | 5 kts | 36° |
| 2026-04-26 06:18 | 12.99211 | 80.17734 | 47 ft | 6 kts | 63° |
| 2026-04-26 06:18 | 12.99237 | 80.17796 | 49 ft | 12 kts | 69° |
| 2026-04-26 06:19 | 12.99273 | 80.17899 | 49 ft | 18 kts | 69° |
| 2026-04-26 06:19 | 12.99328 | 80.18039 | 49 ft | 24 kts | 68° |
| 2026-04-26 06:19 | 12.99363 | 80.18179 | 55 ft | 21 kts | 88° |
| 2026-04-26 06:19 | 12.99420 | 80.18310 | 47 ft | 21 kts | 45° |
| 2026-04-26 06:20 | 12.99537 | 80.18404 | 50 ft | 2 kts | 11° |
| 2026-04-26 06:20 | 12.99558 | 80.18396 | 48 ft | 4 kts | 322° |
| 2026-04-26 06:20 | 12.99565 | 80.18365 | 51 ft | 5 kts | 267° |
| 2026-04-26 06:20 | 12.99556 | 80.18338 | 50 ft | 0 kts | 251° |
| 2026-04-26 06:21 | 12.99555 | 80.18338 | 50 ft | 0 kts | 251° |
| 2026-04-26 06:21 | 12.99538 | 80.18291 | 48 ft | 27 kts | 249° |
| 2026-04-26 06:22 | 12.99390 | 80.17901 | 49 ft | 88 kts | 249° |
| 2026-04-26 06:22 | 12.99102 | 80.17136 | 48 ft | 141 kts | 249° |
| 2026-04-26 06:22 | 12.98699 | 80.16052 | 62 ft | 183 kts | 245° |
| 2026-04-26 06:22 | 12.98266 | 80.14771 | 544 ft | 192 kts | 248° |
| 2026-04-26 06:23 | 12.97864 | 80.13498 | 1389 ft | 186 kts | 253° |
| 2026-04-26 06:23 | 12.97963 | 80.12106 | 1802 ft | 215 kts | 284° |
| 2026-04-26 06:23 | 12.98494 | 80.10531 | 2066 ft | 250 kts | 288° |
| 2026-04-26 06:23 | 12.99107 | 80.08794 | 2730 ft | 265 kts | 287° |
| 2026-04-26 06:24 | 12.99702 | 80.06993 | 3726 ft | 268 kts | 286° |
| 2026-04-26 06:24 | 13.00277 | 80.05163 | 4536 ft | 277 kts | 286° |
| 2026-04-26 06:24 | 13.00860 | 80.03242 | 5272 ft | 289 kts | 286° |
| 2026-04-26 06:24 | 13.01471 | 80.01189 | 5722 ft | 313 kts | 287° |
| 2026-04-26 06:25 | 13.02118 | 79.98995 | 5842 ft | 319 kts | 287° |
| 2026-04-26 06:25 | 13.02742 | 79.96868 | 5886 ft | 304 kts | 287° |
| 2026-04-26 06:25 | 13.03337 | 79.94830 | 5885 ft | 292 kts | 287° |
| 2026-04-26 06:25 | 13.03919 | 79.92838 | 5910 ft | 292 kts | 287° |
| 2026-04-26 06:26 | 13.04499 | 79.90846 | 5913 ft | 291 kts | 287° |
| 2026-04-26 06:26 | 13.05078 | 79.88858 | 5913 ft | 290 kts | 287° |
| 2026-04-26 06:26 | 13.05656 | 79.86873 | 5926 ft | 290 kts | 287° |
| 2026-04-26 06:26 | 13.06234 | 79.84886 | 5930 ft | 291 kts | 287° |
| 2026-04-26 06:27 | 13.06813 | 79.82897 | 5932 ft | 292 kts | 287° |
| 2026-04-26 06:27 | 13.07390 | 79.80900 | 5934 ft | 291 kts | 286° |
| 2026-04-26 06:27 | 13.07914 | 79.78902 | 6012 ft | 289 kts | 285° |
| 2026-04-26 06:27 | 13.08418 | 79.76887 | 6299 ft | 293 kts | 285° |
| 2026-04-26 06:28 | 13.08915 | 79.74880 | 6789 ft | 296 kts | 285° |
| 2026-04-26 06:28 | 13.09422 | 79.72834 | 7362 ft | 296 kts | 285° |
| 2026-04-26 06:28 | 13.09932 | 79.70777 | 7910 ft | 299 kts | 286° |
| 2026-04-26 06:28 | 13.10448 | 79.68695 | 8410 ft | 302 kts | 286° |
| 2026-04-26 06:29 | 13.10969 | 79.66592 | 8955 ft | 306 kts | 286° |
| 2026-04-26 06:29 | 13.11496 | 79.64463 | 9508 ft | 309 kts | 287° |
| 2026-04-26 06:29 | 13.12028 | 79.62316 | 10024 ft | 313 kts | 287° |
| 2026-04-26 06:29 | 13.12577 | 79.60103 | 10273 ft | 327 kts | 287° |
| 2026-04-26 06:30 | 13.13152 | 79.57789 | 10457 ft | 343 kts | 287° |
| 2026-04-26 06:30 | 13.13752 | 79.55365 | 10667 ft | 357 kts | 286° |
| 2026-04-26 06:30 | 13.14375 | 79.52849 | 10831 ft | 370 kts | 286° |
| 2026-04-26 06:30 | 13.15018 | 79.50245 | 11065 ft | 381 kts | 286° |
| 2026-04-26 06:31 | 13.15672 | 79.47592 | 11442 ft | 385 kts | 286° |
| 2026-04-26 06:31 | 13.16329 | 79.44924 | 11915 ft | 387 kts | 286° |
| 2026-04-26 06:31 | 13.16991 | 79.42238 | 12371 ft | 390 kts | 286° |
| 2026-04-26 06:31 | 13.17657 | 79.39533 | 12798 ft | 392 kts | 286° |
| 2026-04-26 06:32 | 13.18329 | 79.36809 | 13241 ft | 395 kts | 286° |
| 2026-04-26 06:32 | 13.19005 | 79.34066 | 13694 ft | 398 kts | 286° |
| 2026-04-26 06:32 | 13.19687 | 79.31308 | 14087 ft | 400 kts | 286° |
| 2026-04-26 06:32 | 13.20365 | 79.28570 | 14474 ft | 401 kts | 286° |
| 2026-04-26 06:33 | 13.21052 | 79.25785 | 14874 ft | 403 kts | 285° |
| 2026-04-26 06:33 | 13.21743 | 79.22990 | 15291 ft | 404 kts | 285° |
| 2026-04-26 06:33 | 13.22436 | 79.20189 | 15757 ft | 403 kts | 285° |
| 2026-04-26 06:33 | 13.23124 | 79.17402 | 16381 ft | 398 kts | 285° |
| 2026-04-26 06:34 | 13.23800 | 79.14663 | 17034 ft | 393 kts | 285° |
| 2026-04-26 06:34 | 13.24469 | 79.11955 | 17694 ft | 388 kts | 284° |
| 2026-04-26 06:34 | 13.25118 | 79.09323 | 18340 ft | 382 kts | 284° |
| 2026-04-26 06:34 | 13.25767 | 79.06691 | 18912 ft | 377 kts | 284° |
| 2026-04-26 06:35 | 13.26404 | 79.04106 | 19501 ft | 371 kts | 284° |
| 2026-04-26 06:35 | 13.27066 | 79.01563 | 20075 ft | 366 kts | 287° |
| 2026-04-26 06:35 | 13.27992 | 78.99132 | 20549 ft | 365 kts | 296° |
| 2026-04-26 06:35 | 13.29301 | 78.96909 | 21040 ft | 363 kts | 307° |
| 2026-04-26 06:36 | 13.30714 | 78.94781 | 21512 ft | 359 kts | 294° |
| 2026-04-26 06:36 | 13.31445 | 78.92357 | 22017 ft | 354 kts | 276° |
| 2026-04-26 06:36 | 13.31591 | 78.89854 | 22510 ft | 349 kts | 267° |
| 2026-04-26 06:36 | 13.31475 | 78.87380 | 23020 ft | 345 kts | 264° |
| 2026-04-26 06:37 | 13.31235 | 78.84931 | 23007 ft | 344 kts | 262° |
| 2026-04-26 06:37 | 13.30944 | 78.82495 | 22363 ft | 354 kts | 261° |
| 2026-04-26 06:37 | 13.30627 | 78.79911 | 21557 ft | 367 kts | 261° |
| 2026-04-26 06:37 | 13.30324 | 78.77298 | 20764 ft | 379 kts | 262° |
| 2026-04-26 06:38 | 13.30029 | 78.74560 | 19921 ft | 393 kts | 263° |
| 2026-04-26 06:38 | 13.29745 | 78.71730 | 19135 ft | 404 kts | 263° |
| 2026-04-26 06:38 | 13.29464 | 78.68811 | 18467 ft | 418 kts | 264° |
| 2026-04-26 06:38 | 13.29183 | 78.65810 | 18070 ft | 425 kts | 264° |
| 2026-04-26 06:39 | 13.28901 | 78.62781 | 17965 ft | 425 kts | 264° |
| 2026-04-26 06:39 | 13.28619 | 78.59766 | 17961 ft | 424 kts | 264° |
| 2026-04-26 06:39 | 13.28336 | 78.56749 | 17964 ft | 423 kts | 264° |
| 2026-04-26 06:39 | 13.28051 | 78.53737 | 17968 ft | 423 kts | 264° |
| 2026-04-26 06:40 | 13.27765 | 78.50726 | 17553 ft | 424 kts | 264° |
| 2026-04-26 06:40 | 13.27476 | 78.47685 | 16762 ft | 430 kts | 264° |
| 2026-04-26 06:40 | 13.27187 | 78.44652 | 16450 ft | 423 kts | 264° |
| 2026-04-26 06:40 | 13.26905 | 78.41702 | 16074 ft | 417 kts | 265° |
| 2026-04-26 06:41 | 13.26946 | 78.38747 | 15586 ft | 414 kts | 281° |
| 2026-04-26 06:41 | 13.27848 | 78.35974 | 15088 ft | 409 kts | 300° |
| 2026-04-26 06:41 | 13.29529 | 78.33670 | 14605 ft | 401 kts | 319° |
| 2026-04-26 06:41 | 13.31734 | 78.31968 | 14194 ft | 395 kts | 326° |
| 2026-04-26 06:42 | 13.33675 | 78.29967 | 13955 ft | 397 kts | 309° |
| 2026-04-26 06:42 | 13.34993 | 78.27453 | 13344 ft | 406 kts | 290° |
| 2026-04-26 06:42 | 13.35422 | 78.24596 | 12885 ft | 407 kts | 269° |
| 2026-04-26 06:42 | 13.34867 | 78.21770 | 12459 ft | 404 kts | 248° |
| 2026-04-26 06:43 | 13.33403 | 78.19339 | 11999 ft | 400 kts | 226° |
| 2026-04-26 06:43 | 13.31216 | 78.17612 | 11548 ft | 394 kts | 204° |
| 2026-04-26 06:43 | 13.28643 | 78.16758 | 11098 ft | 387 kts | 190° |
| 2026-04-26 06:43 | 13.26040 | 78.16063 | 10634 ft | 386 kts | 195° |
| 2026-04-26 06:44 | 13.23492 | 78.15198 | 10200 ft | 384 kts | 197° |
| 2026-04-26 06:44 | 13.21007 | 78.14310 | 10037 ft | 381 kts | 197° |
| 2026-04-26 06:44 | 13.18504 | 78.13414 | 9998 ft | 382 kts | 197° |
| 2026-04-26 06:44 | 13.15987 | 78.12512 | 9995 ft | 383 kts | 197° |
| 2026-04-26 06:45 | 13.13465 | 78.11608 | 9997 ft | 384 kts | 197° |
| 2026-04-26 06:45 | 13.10923 | 78.10757 | 9996 ft | 383 kts | 193° |
| 2026-04-26 06:45 | 13.08427 | 78.09790 | 9992 ft | 386 kts | 210° |
| 2026-04-26 06:45 | 13.06427 | 78.07970 | 10015 ft | 386 kts | 233° |
| 2026-04-26 06:46 | 13.05170 | 78.05551 | 10013 ft | 385 kts | 253° |
| 2026-04-26 06:46 | 13.04771 | 78.02856 | 10011 ft | 383 kts | 274° |
| 2026-04-26 06:46 | 13.05273 | 78.00200 | 10013 ft | 378 kts | 294° |
| 2026-04-26 06:46 | 13.06603 | 77.97914 | 10012 ft | 371 kts | 315° |
| 2026-04-26 06:47 | 13.08553 | 77.96284 | 10004 ft | 364 kts | 335° |
| 2026-04-26 06:47 | 13.10913 | 77.95451 | 10009 ft | 357 kts | 353° |
| 2026-04-26 06:47 | 13.13381 | 77.95171 | 9994 ft | 357 kts | 358° |
| 2026-04-26 06:47 | 13.15848 | 77.94994 | 9499 ft | 353 kts | 359° |
| 2026-04-26 06:48 | 13.18299 | 77.94840 | 8508 ft | 353 kts | 358° |
| 2026-04-26 06:48 | 13.20747 | 77.94712 | 7695 ft | 352 kts | 359° |
| 2026-04-26 06:48 | 13.23194 | 77.94610 | 7209 ft | 352 kts | 359° |
| 2026-04-26 06:48 | 13.25662 | 77.94510 | 7028 ft | 356 kts | 359° |
| 2026-04-26 06:49 | 13.28108 | 77.94413 | 6991 ft | 356 kts | 359° |
| 2026-04-26 06:49 | 13.30532 | 77.94695 | 6993 ft | 344 kts | 19° |
| 2026-04-26 06:49 | 13.32551 | 77.95804 | 7004 ft | 318 kts | 41° |
| 2026-04-26 06:49 | 13.33850 | 77.97492 | 6990 ft | 288 kts | 67° |
| 2026-04-26 06:50 | 13.34316 | 77.99394 | 7000 ft | 266 kts | 85° |
| 2026-04-26 06:50 | 13.34368 | 78.01267 | 6989 ft | 260 kts | 98° |
| 2026-04-26 06:50 | 13.33735 | 78.02949 | 6902 ft | 249 kts | 127° |
| 2026-04-26 06:50 | 13.32433 | 78.04060 | 6593 ft | 245 kts | 154° |
| 2026-04-26 06:51 | 13.30736 | 78.04371 | 6090 ft | 257 kts | 186° |
| 2026-04-26 06:51 | 13.27878 | 78.02445 | 5984 ft | 245 kts | 232° |
| 2026-04-26 06:51 | 13.26947 | 78.01026 | 6007 ft | 236 kts | 235° |
| 2026-04-26 06:52 | 13.26064 | 77.99592 | 6000 ft | 238 kts | 236° |
| 2026-04-26 06:52 | 13.25172 | 77.98153 | 5986 ft | 239 kts | 236° |
| 2026-04-26 06:52 | 13.24283 | 77.96707 | 5987 ft | 240 kts | 237° |
| 2026-04-26 06:52 | 13.23385 | 77.95266 | 5990 ft | 239 kts | 236° |
| 2026-04-26 06:53 | 13.22476 | 77.93832 | 5999 ft | 240 kts | 236° |
| 2026-04-26 06:53 | 13.21606 | 77.92362 | 5984 ft | 242 kts | 246° |
| 2026-04-26 06:53 | 13.21344 | 77.90674 | 6003 ft | 242 kts | 272° |
| 2026-04-26 06:53 | 13.21495 | 77.88969 | 6000 ft | 243 kts | 273° |
| 2026-04-26 06:54 | 13.21570 | 77.87232 | 5659 ft | 245 kts | 271° |
| 2026-04-26 06:54 | 13.21621 | 77.85451 | 5128 ft | 248 kts | 271° |
| 2026-04-26 06:54 | 13.21823 | 77.83740 | 4999 ft | 238 kts | 291° |
| 2026-04-26 06:54 | 13.22763 | 77.82378 | 4991 ft | 236 kts | 323° |
| 2026-04-26 06:55 | 13.24253 | 77.81709 | 4996 ft | 235 kts | 351° |
| 2026-04-26 06:55 | 13.25897 | 77.81521 | 5108 ft | 239 kts | 358° |
| 2026-04-26 06:55 | 13.27561 | 77.81437 | 5398 ft | 239 kts | 359° |
| 2026-04-26 06:55 | 13.29205 | 77.81570 | 5695 ft | 238 kts | 20° |
| 2026-04-26 06:56 | 13.30544 | 77.82477 | 6007 ft | 234 kts | 52° |
| 2026-04-26 06:56 | 13.31232 | 77.83960 | 6286 ft | 231 kts | 80° |
| 2026-04-26 06:56 | 13.31398 | 77.85594 | 6587 ft | 230 kts | 87° |
| 2026-04-26 06:56 | 13.31447 | 77.87243 | 6853 ft | 232 kts | 89° |
| 2026-04-26 06:57 | 13.31476 | 77.88905 | 6977 ft | 233 kts | 89° |
| 2026-04-26 06:57 | 13.31493 | 77.90028 | 6987 ft | 232 kts | 89° |
| 2026-04-26 06:57 | 13.31517 | 77.91672 | 6992 ft | 233 kts | 89° |
| 2026-04-26 06:57 | 13.31535 | 77.93335 | 6991 ft | 234 kts | 89° |
| 2026-04-26 06:58 | 13.31556 | 77.95004 | 6985 ft | 233 kts | 89° |
| 2026-04-26 06:58 | 13.31570 | 77.96669 | 6976 ft | 232 kts | 92° |
| 2026-04-26 06:58 | 13.31137 | 77.98152 | 6968 ft | 209 kts | 125° |
| 2026-04-26 06:58 | 13.30037 | 77.99028 | 6986 ft | 201 kts | 160° |
| 2026-04-26 06:59 | 13.28652 | 77.99240 | 7000 ft | 203 kts | 176° |
| 2026-04-26 06:59 | 13.27233 | 77.99224 | 6987 ft | 205 kts | 182° |
| 2026-04-26 06:59 | 13.25871 | 77.98753 | 6720 ft | 214 kts | 213° |
| 2026-04-26 06:59 | 13.24853 | 77.97602 | 6192 ft | 219 kts | 234° |
| 2026-04-26 07:00 | 13.24094 | 77.96289 | 5968 ft | 208 kts | 238° |
| 2026-04-26 07:00 | 13.23388 | 77.95000 | 5983 ft | 207 kts | 238° |
| 2026-04-26 07:00 | 13.22675 | 77.93705 | 6001 ft | 209 kts | 240° |
| 2026-04-26 07:00 | 13.21970 | 77.92429 | 5990 ft | 208 kts | 243° |
| 2026-04-26 07:01 | 13.21424 | 77.91050 | 6002 ft | 210 kts | 249° |
| 2026-04-26 07:01 | 13.20962 | 77.89628 | 5985 ft | 209 kts | 252° |
| 2026-04-26 07:01 | 13.20673 | 77.88169 | 5917 ft | 208 kts | 265° |
| 2026-04-26 07:01 | 13.20664 | 77.86686 | 5634 ft | 207 kts | 270° |
| 2026-04-26 07:02 | 13.20671 | 77.85210 | 5302 ft | 206 kts | 270° |
| 2026-04-26 07:02 | 13.20671 | 77.83744 | 5051 ft | 203 kts | 269° |
| 2026-04-26 07:02 | 13.20672 | 77.82323 | 4807 ft | 195 kts | 269° |
| 2026-04-26 07:02 | 13.20676 | 77.80946 | 4612 ft | 189 kts | 270° |
| 2026-04-26 07:03 | 13.20679 | 77.79619 | 4387 ft | 183 kts | 270° |
| 2026-04-26 07:03 | 13.20685 | 77.78322 | 4186 ft | 181 kts | 269° |
| 2026-04-26 07:03 | 13.20689 | 77.77044 | 3947 ft | 182 kts | 269° |
| 2026-04-26 07:03 | 13.20694 | 77.75745 | 3707 ft | 182 kts | 269° |
| 2026-04-26 07:04 | 13.20699 | 77.74453 | 3465 ft | 182 kts | 268° |
| 2026-04-26 07:04 | 13.20694 | 77.73163 | 3164 ft | 178 kts | 266° |
| 2026-04-26 07:04 | 13.20690 | 77.71897 | 2939 ft | 177 kts | 268° |
| 2026-04-26 07:04 | 13.20695 | 77.71048 | 2954 ft | 81 kts | 271° |
| 2026-04-26 07:05 | 13.20699 | 77.70543 | 2955 ft | 47 kts | 263° |
| 2026-04-26 07:05 | 13.20674 | 77.70438 | 2968 ft | 0 kts | 252° |
| 2026-04-26 07:05 | 13.20670 | 77.70425 | 2968 ft | 10 kts | 252° |
| 2026-04-26 07:05 | 13.20635 | 77.70346 | 2970 ft | 11 kts | 244° |
| 2026-04-26 07:06 | 13.20621 | 77.70317 | 2971 ft | 0 kts | 243° |
| 2026-04-26 07:06 | 13.20595 | 77.70288 | 2961 ft | 10 kts | 210° |
| 2026-04-26 07:07 | 13.20537 | 77.70296 | 2971 ft | 9 kts | 127° |
| 2026-04-26 07:07 | 13.20527 | 77.70400 | 2969 ft | 22 kts | 90° |
| 2026-04-26 07:07 | 13.20530 | 77.70610 | 2952 ft | 29 kts | 90° |
| 2026-04-26 07:07 | 13.20528 | 77.70770 | 2949 ft | 29 kts | 91° |
| 2026-04-26 07:08 | 13.20526 | 77.70917 | 2951 ft | 16 kts | 90° |
| 2026-04-26 07:08 | 13.20526 | 77.71090 | 2953 ft | 32 kts | 90° |
| 2026-04-26 07:08 | 13.20525 | 77.71358 | 2943 ft | 39 kts | 90° |
| 2026-04-26 07:08 | 13.20524 | 77.71570 | 2943 ft | 22 kts | 91° |
| 2026-04-26 07:09 | 13.20522 | 77.71724 | 2934 ft | 22 kts | 90° |
| 2026-04-26 07:09 | 13.20520 | 77.71879 | 2930 ft | 22 kts | 90° |
| 2026-04-26 07:09 | 13.20518 | 77.72035 | 2926 ft | 21 kts | 90° |
| 2026-04-26 07:09 | 13.20464 | 77.72110 | 2931 ft | 9 kts | 172° |
| 2026-04-26 07:10 | 13.20322 | 77.72112 | 2928 ft | 6 kts | 179° |
| 2026-04-26 07:11 | 13.20221 | 77.72112 | 2931 ft | 9 kts | 180° |
| 2026-04-26 07:11 | 13.20187 | 77.72111 | 2926 ft | 0 kts | 182° |
| 2026-04-26 07:11 | 13.20184 | 77.72108 | 2926 ft | 1 kts | 209° |
| 2026-04-26 07:11 | 13.20180 | 77.72082 | 2927 ft | 9 kts | 262° |
| 2026-04-26 07:12 | 13.20177 | 77.71986 | 2934 ft | 16 kts | 270° |
| 2026-04-26 07:12 | 13.20177 | 77.71942 | 2935 ft | 9 kts | 271° |
| 2026-04-26 07:12 | 13.20178 | 77.71907 | 2936 ft | 9 kts | 273° |
| 2026-04-26 07:12 | 13.20164 | 77.71846 | 2927 ft | 1 kts | 219° |
| 2026-04-26 07:13 | 13.20123 | 77.71833 | 2933 ft | 11 kts | 186° |
| 2026-04-26 07:13 | 13.20082 | 77.71834 | 2936 ft | 6 kts | 178° |
| 2026-04-26 07:13 | 13.20075 | 77.71834 | 2929 ft | 0 kts | 178° |